createdAt,value
2024-02-13T00:00:00.720Z,46.0
2024-02-13T00:01:00.672Z,46.0
2024-02-13T00:02:00.728Z,46.0
2024-02-13T00:03:00.865Z,46.0
2024-02-13T00:04:00.697Z,46.0
2024-02-13T00:05:00.655Z,46.0
2024-02-13T00:06:00.800Z,46.1
2024-02-13T00:07:00.699Z,46.1
2024-02-13T00:08:00.714Z,46.2
2024-02-13T00:09:00.865Z,46.4
2024-02-13T00:10:00.727Z,46.5
2024-02-13T00:11:00.654Z,46.5
2024-02-13T00:12:01.275Z,46.6
2024-02-13T00:13:00.724Z,46.7
2024-02-13T00:14:00.645Z,46.8
2024-02-13T00:15:00.729Z,46.8
2024-02-13T00:16:00.659Z,46.8
2024-02-13T00:17:00.656Z,46.8
2024-02-13T00:18:00.835Z,46.9
2024-02-13T00:19:00.665Z,46.8
2024-02-13T00:20:00.687Z,46.8
2024-02-13T00:21:00.734Z,46.9
2024-02-13T00:22:00.657Z,46.9
2024-02-13T00:23:00.776Z,46.9
2024-02-13T00:24:00.715Z,46.9
2024-02-13T00:25:00.671Z,46.9
2024-02-13T00:26:00.673Z,47.0
2024-02-13T00:27:00.650Z,47.1
2024-02-13T00:28:00.722Z,46.9
2024-02-13T00:29:00.724Z,46.8
2024-02-13T00:30:00.662Z,46.8
2024-02-13T00:31:00.700Z,46.7
2024-02-13T00:32:00.690Z,46.6
2024-02-13T00:33:00.848Z,46.5
2024-02-13T00:34:00.763Z,46.5
2024-02-13T00:35:01.040Z,46.4
2024-02-13T00:36:00.803Z,46.2
2024-02-13T00:37:00.678Z,46.1
2024-02-13T00:38:00.703Z,46.1
2024-02-13T00:39:00.655Z,46.2
2024-02-13T00:40:00.668Z,46.2
2024-02-13T00:41:00.768Z,46.3
2024-02-13T00:42:00.672Z,46.1
2024-02-13T00:43:00.712Z,46.1
2024-02-13T00:44:00.656Z,46.1
2024-02-13T00:45:00.688Z,46.1
2024-02-13T00:46:00.714Z,46.3
2024-02-13T00:47:00.653Z,46.4
2024-02-13T00:48:00.759Z,46.3
2024-02-13T00:49:00.740Z,46.2
2024-02-13T00:50:00.655Z,46.0
2024-02-13T00:51:00.865Z,45.9
2024-02-13T00:52:00.725Z,45.8
2024-02-13T00:53:00.683Z,45.8
2024-02-13T00:54:00.658Z,45.8
2024-02-13T00:55:00.659Z,45.7
2024-02-13T00:56:00.649Z,45.7
2024-02-13T00:57:00.717Z,45.7
2024-02-13T00:58:00.848Z,45.7
2024-02-13T00:59:00.699Z,45.7
2024-02-13T01:00:00.784Z,45.6
2024-02-13T01:01:00.685Z,45.6
2024-02-13T01:02:00.645Z,45.6
2024-02-13T01:03:00.715Z,45.5
2024-02-13T01:04:00.737Z,45.5
2024-02-13T01:05:00.679Z,45.5
2024-02-13T01:06:00.718Z,45.4
2024-02-13T01:07:00.724Z,45.4
2024-02-13T01:08:00.646Z,45.3
2024-02-13T01:09:00.638Z,45.2
2024-02-13T01:10:00.714Z,45.2
2024-02-13T01:11:00.644Z,45.2
2024-02-13T01:12:00.661Z,45.1
2024-02-13T01:13:00.714Z,45.0
2024-02-13T01:14:00.650Z,44.9
2024-02-13T01:15:00.755Z,44.8
2024-02-13T01:16:00.713Z,44.6
2024-02-13T01:17:00.671Z,44.8
2024-02-13T01:18:00.831Z,44.9
2024-02-13T01:19:00.785Z,44.7
2024-02-13T01:20:00.713Z,44.6
2024-02-13T01:21:00.833Z,44.6
2024-02-13T01:22:00.644Z,44.6
2024-02-13T01:23:00.708Z,44.4
2024-02-13T01:24:00.674Z,44.2
2024-02-13T01:25:00.692Z,44.1
2024-02-13T01:26:00.780Z,44.1
2024-02-13T01:27:00.649Z,44.1
2024-02-13T01:28:00.714Z,44.1
2024-02-13T01:29:00.717Z,44.0
2024-02-13T01:30:00.801Z,43.9
2024-02-13T01:31:00.663Z,44.1
2024-02-13T01:32:00.677Z,44.3
2024-02-13T01:33:00.863Z,44.3
2024-02-13T01:34:00.874Z,44.2
2024-02-13T01:35:00.779Z,44.2
2024-02-13T01:36:00.773Z,44.1
2024-02-13T01:37:00.673Z,43.9
2024-02-13T01:38:00.673Z,43.7
2024-02-13T01:39:00.697Z,43.9
2024-02-13T01:40:00.658Z,43.9
2024-02-13T01:41:00.674Z,43.8
2024-02-13T01:42:00.718Z,43.8
2024-02-13T01:43:00.713Z,43.8
2024-02-13T01:44:00.664Z,43.7
2024-02-13T01:45:00.666Z,43.7
2024-02-13T01:46:00.647Z,43.6
2024-02-13T01:47:00.656Z,43.5
2024-02-13T01:48:00.947Z,43.4
2024-02-13T01:49:01.071Z,43.4
2024-02-13T01:50:00.650Z,43.4
2024-02-13T01:51:00.709Z,43.5
2024-02-13T01:52:00.655Z,43.5
2024-02-13T01:53:00.678Z,43.7
2024-02-13T01:54:00.943Z,43.6
2024-02-13T01:55:00.665Z,43.6
2024-02-13T01:56:00.651Z,43.7
2024-02-13T01:57:00.683Z,43.9
2024-02-13T01:58:00.840Z,44.2
2024-02-13T01:59:00.739Z,44.2
2024-02-13T02:00:00.796Z,44.2
2024-02-13T02:01:00.844Z,44.5
2024-02-13T02:02:00.696Z,44.5
2024-02-13T02:03:00.712Z,44.7
2024-02-13T02:04:00.993Z,44.7
2024-02-13T02:05:00.698Z,44.9
2024-02-13T02:06:00.864Z,45.0
2024-02-13T02:07:00.794Z,45.1
2024-02-13T02:08:00.775Z,45.2
2024-02-13T02:09:00.757Z,45.2
2024-02-13T02:10:00.669Z,45.4
2024-02-13T02:11:00.657Z,45.4
2024-02-13T02:12:00.780Z,45.5
2024-02-13T02:13:00.697Z,45.4
2024-02-13T02:14:00.665Z,45.3
2024-02-13T02:15:00.673Z,45.4
2024-02-13T02:16:00.727Z,45.4
2024-02-13T02:17:00.659Z,45.6
2024-02-13T02:18:01.044Z,45.8
2024-02-13T02:19:00.757Z,45.9
2024-02-13T02:20:00.684Z,45.9
2024-02-13T02:21:00.684Z,45.8
2024-02-13T02:22:00.688Z,45.9
2024-02-13T02:23:00.643Z,45.9
2024-02-13T02:24:00.816Z,45.9
2024-02-13T02:25:00.734Z,45.9
2024-02-13T02:26:00.680Z,45.9
2024-02-13T02:27:00.730Z,46.1
2024-02-13T02:28:00.733Z,46.2
2024-02-13T02:29:00.721Z,46.2
2024-02-13T02:30:00.695Z,46.2
2024-02-13T02:31:00.727Z,46.3
2024-02-13T02:32:00.642Z,46.2
2024-02-13T02:33:00.867Z,46.2
2024-02-13T02:34:00.741Z,46.0
2024-02-13T02:35:00.739Z,46.0
2024-02-13T02:36:00.821Z,45.9
2024-02-13T02:37:00.815Z,45.9
2024-02-13T02:38:00.694Z,45.9
2024-02-13T02:39:00.759Z,45.9
2024-02-13T02:40:00.687Z,45.9
2024-02-13T02:41:00.676Z,45.9
2024-02-13T02:42:00.670Z,45.9
2024-02-13T02:43:00.868Z,45.8
2024-02-13T02:44:00.646Z,45.9
2024-02-13T02:45:00.721Z,45.9
2024-02-13T02:46:00.751Z,46.0
2024-02-13T02:47:00.719Z,46.8
2024-02-13T02:48:00.834Z,46.5
2024-02-13T02:49:00.798Z,46.5
2024-02-13T02:50:00.722Z,46.5
2024-02-13T02:51:00.798Z,46.5
2024-02-13T02:52:00.753Z,46.4
2024-02-13T02:53:00.780Z,46.4
2024-02-13T02:54:00.819Z,46.3
2024-02-13T02:55:00.693Z,46.4
2024-02-13T02:56:00.670Z,46.4
2024-02-13T02:57:00.708Z,46.5
2024-02-13T02:58:00.708Z,46.5
2024-02-13T02:59:00.674Z,46.4
2024-02-13T03:00:00.786Z,46.3
2024-02-13T03:01:00.686Z,46.2
2024-02-13T03:02:00.653Z,46.4
2024-02-13T03:03:00.979Z,46.5
2024-02-13T03:04:00.837Z,46.5
2024-02-13T03:05:00.654Z,46.5
2024-02-13T03:06:00.802Z,46.6
2024-02-13T03:07:00.760Z,46.8
2024-02-13T03:08:00.652Z,46.6
2024-02-13T03:09:00.829Z,46.6
2024-02-13T03:10:00.699Z,46.7
2024-02-13T03:11:00.648Z,46.7
2024-02-13T03:12:00.740Z,46.7
2024-02-13T03:13:00.715Z,46.6
2024-02-13T03:14:00.662Z,46.6
2024-02-13T03:15:00.741Z,46.6
2024-02-13T03:16:00.671Z,46.7
2024-02-13T03:17:00.676Z,46.8
2024-02-13T03:18:00.846Z,46.7
2024-02-13T03:19:00.811Z,46.7
2024-02-13T03:20:00.673Z,46.6
2024-02-13T03:21:00.764Z,46.5
2024-02-13T03:22:00.651Z,46.6
2024-02-13T03:23:00.671Z,46.5
2024-02-13T03:24:00.661Z,46.6
2024-02-13T03:25:04.213Z,46.5
2024-02-13T03:26:00.651Z,46.4
2024-02-13T03:27:00.760Z,46.4
2024-02-13T03:28:00.727Z,46.2
2024-02-13T03:29:00.670Z,46.3
2024-02-13T03:30:00.735Z,46.2
2024-02-13T03:31:00.751Z,46.1
2024-02-13T03:32:00.657Z,46.1
2024-02-13T03:33:01.048Z,46.1
2024-02-13T03:34:00.829Z,46.0
2024-02-13T03:35:00.759Z,46.2
2024-02-13T03:36:00.740Z,46.1
2024-02-13T03:37:00.666Z,46.2
2024-02-13T03:38:00.663Z,46.0
2024-02-13T03:39:00.700Z,46.1
2024-02-13T03:40:00.668Z,46.1
2024-02-13T03:41:01.019Z,46.2
2024-02-13T03:42:00.706Z,46.2
2024-02-13T03:43:00.666Z,46.3
2024-02-13T03:44:00.646Z,46.5
2024-02-13T03:45:00.646Z,46.3
2024-02-13T03:46:00.673Z,46.3
2024-02-13T03:47:00.759Z,46.2
2024-02-13T03:48:00.851Z,46.1
2024-02-13T03:49:00.757Z,46.0
2024-02-13T03:50:00.727Z,46.3
2024-02-13T03:51:00.688Z,46.2
2024-02-13T03:52:00.663Z,46.1
2024-02-13T03:53:00.728Z,46.0
2024-02-13T03:54:00.658Z,45.9
2024-02-13T03:55:00.679Z,45.9
2024-02-13T03:56:00.706Z,45.8
2024-02-13T03:57:00.723Z,45.8
2024-02-13T03:58:00.695Z,45.7
2024-02-13T03:59:00.650Z,45.9
2024-02-13T04:00:00.721Z,46.3
2024-02-13T04:01:00.707Z,46.4
2024-02-13T04:02:00.770Z,46.3
2024-02-13T04:03:00.667Z,46.4
2024-02-13T04:04:00.701Z,46.3
2024-02-13T04:05:00.652Z,46.4
2024-02-13T04:06:00.826Z,46.4
2024-02-13T04:07:00.655Z,46.5
2024-02-13T04:08:00.725Z,46.3
2024-02-13T04:09:00.641Z,46.3
2024-02-13T04:10:00.659Z,46.4
2024-02-13T04:11:00.730Z,46.4
2024-02-13T04:12:00.707Z,46.6
2024-02-13T04:13:00.683Z,46.6
2024-02-13T04:14:00.722Z,46.4
2024-02-13T04:15:00.844Z,46.2
2024-02-13T04:16:00.690Z,46.1
2024-02-13T04:17:00.778Z,46.0
2024-02-13T04:18:00.829Z,45.9
2024-02-13T04:19:00.931Z,45.6
2024-02-13T04:20:00.701Z,45.5
2024-02-13T04:21:00.747Z,45.4
2024-02-13T04:22:00.683Z,45.4
2024-02-13T04:23:00.827Z,45.2
2024-02-13T04:24:00.751Z,45.2
2024-02-13T04:25:00.664Z,45.2
2024-02-13T04:26:00.675Z,45.1
2024-02-13T04:27:00.731Z,45.0
2024-02-13T04:28:00.692Z,44.9
2024-02-13T04:29:00.714Z,44.9
2024-02-13T04:30:00.824Z,44.7
2024-02-13T04:31:00.674Z,44.7
2024-02-13T04:32:00.759Z,44.7
2024-02-13T04:33:01.034Z,44.6
2024-02-13T04:34:00.899Z,44.7
2024-02-13T04:35:00.731Z,44.6
2024-02-13T04:36:00.644Z,44.5
2024-02-13T04:37:00.677Z,44.6
2024-02-13T04:38:00.658Z,44.6
2024-02-13T04:39:00.670Z,44.6
2024-02-13T04:40:00.665Z,44.5
2024-02-13T04:41:00.790Z,44.4
2024-02-13T04:42:00.701Z,44.3
2024-02-13T04:43:00.680Z,44.2
2024-02-13T04:44:00.671Z,44.1
2024-02-13T04:45:00.670Z,44.0
2024-02-13T04:46:00.684Z,43.9
2024-02-13T04:47:00.714Z,43.9
2024-02-13T04:48:00.859Z,43.9
2024-02-13T04:49:00.724Z,43.7
2024-02-13T04:50:00.708Z,43.7
2024-02-13T04:51:00.840Z,43.6
2024-02-13T04:52:00.673Z,43.6
2024-02-13T04:53:00.757Z,43.4
2024-02-13T04:54:00.740Z,43.3
2024-02-13T04:55:00.673Z,43.3
2024-02-13T04:56:00.821Z,43.2
2024-02-13T04:57:00.751Z,43.0
2024-02-13T04:58:00.714Z,42.9
2024-02-13T04:59:00.671Z,42.6
2024-02-13T05:00:00.682Z,42.2
2024-02-13T05:01:00.768Z,41.8
2024-02-13T05:02:00.708Z,41.5
2024-02-13T05:03:00.765Z,40.8
2024-02-13T05:04:00.858Z,40.1
2024-02-13T05:05:00.665Z,39.9
2024-02-13T05:06:00.851Z,39.0
2024-02-13T05:07:00.650Z,38.0
2024-02-13T05:08:00.684Z,37.4
2024-02-13T05:09:00.765Z,36.5
2024-02-13T05:10:00.761Z,35.1
2024-02-13T05:11:00.681Z,34.6
2024-02-13T05:12:00.721Z,34.6
2024-02-13T05:13:00.649Z,32.4
2024-02-13T05:14:01.020Z,31.0
2024-02-13T05:15:00.719Z,31.4
2024-02-13T05:16:00.648Z,30.7
2024-02-13T05:17:00.714Z,31.0
2024-02-13T05:18:00.865Z,30.6
2024-02-13T05:19:00.912Z,30.4
2024-02-13T05:20:00.678Z,29.8
2024-02-13T05:21:00.733Z,29.4
2024-02-13T05:22:00.662Z,29.8
2024-02-13T05:23:00.739Z,29.2
2024-02-13T05:24:00.766Z,28.7
2024-02-13T05:25:00.670Z,29.6
2024-02-13T05:26:00.654Z,30.1
2024-02-13T05:27:00.721Z,29.3
2024-02-13T05:28:00.666Z,29.3
2024-02-13T05:29:00.707Z,29.5
2024-02-13T05:30:00.676Z,30.2
2024-02-13T05:31:00.669Z,29.4
2024-02-13T05:32:00.692Z,29.6
2024-02-13T05:33:00.769Z,30.3
2024-02-13T05:34:00.893Z,30.9
2024-02-13T05:35:00.689Z,31.4
2024-02-13T05:36:00.697Z,30.9
2024-02-13T05:37:00.765Z,30.8
2024-02-13T05:38:00.666Z,31.4
2024-02-13T05:39:00.798Z,31.0
2024-02-13T05:40:00.713Z,29.7
2024-02-13T05:41:00.745Z,28.3
2024-02-13T05:42:00.707Z,28.1
2024-02-13T05:43:00.874Z,27.6
2024-02-13T05:44:00.682Z,27.4
2024-02-13T05:45:00.656Z,26.8
2024-02-13T05:46:00.693Z,26.6
2024-02-13T05:47:00.815Z,26.4
2024-02-13T05:48:00.813Z,25.9
2024-02-13T05:49:00.840Z,26.1
2024-02-13T05:50:00.682Z,26.5
2024-02-13T05:51:00.685Z,26.1
2024-02-13T05:52:00.722Z,25.9
2024-02-13T05:53:00.681Z,26.0
2024-02-13T05:54:00.749Z,27.2
2024-02-13T05:55:00.705Z,27.0
2024-02-13T05:56:01.200Z,26.5
2024-02-13T05:57:00.679Z,26.9
2024-02-13T05:58:00.718Z,26.8
2024-02-13T05:59:00.726Z,26.3
2024-02-13T06:00:00.841Z,26.9
2024-02-13T06:01:00.753Z,27.3
2024-02-13T06:02:00.700Z,27.3
2024-02-13T06:03:00.731Z,27.0
2024-02-13T06:04:00.736Z,26.4
2024-02-13T06:05:00.762Z,26.4
2024-02-13T06:06:00.757Z,27.0
2024-02-13T06:07:00.702Z,26.6
2024-02-13T06:08:00.679Z,25.9
2024-02-13T06:09:00.816Z,25.5
2024-02-13T06:10:00.649Z,25.5
2024-02-13T06:11:00.772Z,25.5
2024-02-13T06:12:00.706Z,25.0
2024-02-13T06:13:00.662Z,25.3
2024-02-13T06:14:00.689Z,25.8
2024-02-13T06:15:00.749Z,26.9
2024-02-13T06:16:00.729Z,27.1
2024-02-13T06:17:00.744Z,27.2
2024-02-13T06:18:00.807Z,26.9
2024-02-13T06:19:00.796Z,26.4
2024-02-13T06:20:00.679Z,26.3
2024-02-13T06:21:00.903Z,26.4
2024-02-13T06:22:00.711Z,27.4
2024-02-13T06:23:00.700Z,28.3
2024-02-13T06:24:00.863Z,29.0
2024-02-13T06:25:00.715Z,29.1
2024-02-13T06:26:00.734Z,29.2
2024-02-13T06:27:00.756Z,29.4
2024-02-13T06:28:00.662Z,29.1
2024-02-13T06:29:00.654Z,28.2
2024-02-13T06:30:00.705Z,27.9
2024-02-13T06:31:00.683Z,26.6
2024-02-13T06:32:00.657Z,27.5
2024-02-13T06:33:00.851Z,27.6
2024-02-13T06:34:00.806Z,28.1
2024-02-13T06:35:00.680Z,28.6
2024-02-13T06:36:00.772Z,29.3
2024-02-13T06:37:00.801Z,29.2
2024-02-13T06:38:00.774Z,29.2
2024-02-13T06:39:00.787Z,29.2
2024-02-13T06:40:00.735Z,29.1
2024-02-13T06:41:00.650Z,29.0
2024-02-13T06:42:04.354Z,28.9
2024-02-13T06:43:00.796Z,28.9
2024-02-13T06:44:00.679Z,29.1
2024-02-13T06:45:00.704Z,29.1
2024-02-13T06:46:00.689Z,29.1
2024-02-13T06:47:00.646Z,29.2
2024-02-13T06:48:00.845Z,29.1
2024-02-13T06:49:00.819Z,28.7
2024-02-13T06:50:00.763Z,28.7
2024-02-13T06:51:00.998Z,28.5
2024-02-13T06:52:00.673Z,28.3
2024-02-13T06:53:00.677Z,28.0
2024-02-13T06:54:00.747Z,28.1
2024-02-13T06:55:00.764Z,28.4
2024-02-13T06:56:00.657Z,28.3
2024-02-13T06:57:00.720Z,28.9
2024-02-13T06:58:00.676Z,29.4
2024-02-13T06:59:00.723Z,29.0
2024-02-13T07:00:04.290Z,29.2
2024-02-13T07:01:00.851Z,30.0
2024-02-13T07:02:00.706Z,30.3
2024-02-13T07:03:00.768Z,30.6
2024-02-13T07:04:00.709Z,30.1
2024-02-13T07:05:00.762Z,30.3
2024-02-13T07:06:00.889Z,30.5
2024-02-13T07:07:09.113Z,31.1
2024-02-13T07:08:00.899Z,31.2
2024-02-13T07:09:00.972Z,31.4
2024-02-13T07:10:01.135Z,31.4
2024-02-13T07:11:00.691Z,31.4
2024-02-13T07:12:00.682Z,31.7
2024-02-13T07:13:00.665Z,31.7
2024-02-13T07:14:00.668Z,31.7
2024-02-13T07:15:00.878Z,32.5
2024-02-13T07:16:00.735Z,31.8
2024-02-13T07:17:00.660Z,31.8
2024-02-13T07:18:02.011Z,32.1
2024-02-13T07:19:00.868Z,32.2
2024-02-13T07:20:00.843Z,32.7
2024-02-13T07:21:03.302Z,32.8
2024-02-13T07:22:00.678Z,32.9
2024-02-13T07:23:00.709Z,33.2
2024-02-13T07:24:00.673Z,33.1
2024-02-13T07:25:00.848Z,33.3
2024-02-13T07:26:00.671Z,33.6
2024-02-13T07:27:03.494Z,33.6
2024-02-13T07:28:00.646Z,33.6
2024-02-13T07:29:00.686Z,34.4
2024-02-13T07:30:00.774Z,34.1
2024-02-13T07:31:00.740Z,33.9
2024-02-13T07:32:00.669Z,33.7
2024-02-13T07:33:00.850Z,33.7
2024-02-13T07:34:00.792Z,34.2
2024-02-13T07:35:00.776Z,34.4
2024-02-13T07:36:00.762Z,34.2
2024-02-13T07:37:00.684Z,34.6
2024-02-13T07:38:00.666Z,34.5
2024-02-13T07:39:00.703Z,34.5
2024-02-13T07:40:00.790Z,34.4
2024-02-13T07:41:00.758Z,34.5
2024-02-13T07:42:00.673Z,34.5
2024-02-13T07:43:00.649Z,34.6
2024-02-13T07:44:00.673Z,34.6
2024-02-13T07:45:00.899Z,34.6
2024-02-13T07:46:00.651Z,34.7
2024-02-13T07:47:00.652Z,34.6
2024-02-13T07:48:00.925Z,34.2
2024-02-13T07:49:00.767Z,34.1
2024-02-13T07:50:00.734Z,33.7
2024-02-13T07:51:00.787Z,33.5
2024-02-13T07:52:00.698Z,33.7
2024-02-13T07:53:00.671Z,33.9
2024-02-13T07:54:00.756Z,33.7
2024-02-13T07:55:00.746Z,34.4
2024-02-13T07:56:00.681Z,34.3
2024-02-13T07:57:00.833Z,34.5
2024-02-13T07:58:00.668Z,34.5
2024-02-13T07:59:00.745Z,34.3
2024-02-13T08:00:00.812Z,34.4
2024-02-13T08:01:00.702Z,34.0
2024-02-13T08:02:00.672Z,34.3
2024-02-13T08:03:00.836Z,34.3
2024-02-13T08:04:00.688Z,34.0
2024-02-13T08:05:00.678Z,33.8
2024-02-13T08:06:00.747Z,33.3
2024-02-13T08:07:00.648Z,33.4
2024-02-13T08:08:00.700Z,33.5
2024-02-13T08:09:00.754Z,33.4
2024-02-13T08:10:00.729Z,33.3
2024-02-13T08:11:00.663Z,33.1
2024-02-13T08:12:00.717Z,32.9
2024-02-13T08:13:00.726Z,32.7
2024-02-13T08:14:00.960Z,31.8
2024-02-13T08:15:00.878Z,32.3
2024-02-13T08:16:00.683Z,32.4
2024-02-13T08:17:00.678Z,32.7
2024-02-13T08:18:00.759Z,32.7
2024-02-13T08:19:00.728Z,32.3
2024-02-13T08:20:00.811Z,31.2
2024-02-13T08:21:00.734Z,30.6
2024-02-13T08:22:00.694Z,31.1
2024-02-13T08:23:00.677Z,31.4
2024-02-13T08:24:00.679Z,32.0
2024-02-13T08:25:00.833Z,32.1
2024-02-13T08:26:00.739Z,32.6
2024-02-13T08:27:00.886Z,32.8
2024-02-13T08:28:00.951Z,32.8
2024-02-13T08:29:00.659Z,33.0
2024-02-13T08:30:00.887Z,33.1
2024-02-13T08:31:00.650Z,32.7
2024-02-13T08:32:00.659Z,31.7
2024-02-13T08:33:00.943Z,31.6
2024-02-13T08:34:01.069Z,31.7
2024-02-13T08:35:01.109Z,31.4
2024-02-13T08:36:00.764Z,30.5
2024-02-13T08:37:00.702Z,29.7
2024-02-13T08:38:00.662Z,29.2
2024-02-13T08:39:00.660Z,29.9
2024-02-13T08:40:00.718Z,29.3
2024-02-13T08:41:00.681Z,28.1
2024-02-13T08:42:00.851Z,26.9
2024-02-13T08:43:00.734Z,25.8
2024-02-13T08:44:00.674Z,25.3
2024-02-13T08:45:00.774Z,24.7
2024-02-13T08:46:00.717Z,24.1
2024-02-13T08:47:00.699Z,23.1
2024-02-13T08:48:00.795Z,22.1
2024-02-13T08:49:01.012Z,22.7
2024-02-13T08:50:00.910Z,21.3
2024-02-13T08:51:00.935Z,20.4
2024-02-13T08:52:00.671Z,21.6
2024-02-13T08:53:00.674Z,21.9
2024-02-13T08:54:00.804Z,22.1
2024-02-13T08:55:00.649Z,22.0
2024-02-13T08:56:00.655Z,21.9
2024-02-13T08:57:00.772Z,22.1
2024-02-13T08:58:00.645Z,22.3
2024-02-13T08:59:00.686Z,21.0
2024-02-13T09:00:00.811Z,20.7
2024-02-13T09:01:00.768Z,20.1
2024-02-13T09:02:00.673Z,20.0
2024-02-13T09:03:00.687Z,20.2
2024-02-13T09:04:00.735Z,20.8
2024-02-13T09:05:00.891Z,21.5
2024-02-13T09:06:00.911Z,21.7
2024-02-13T09:07:00.722Z,21.4
2024-02-13T09:08:00.660Z,21.5
2024-02-13T09:09:00.948Z,21.7
2024-02-13T09:10:00.681Z,22.2
2024-02-13T09:11:00.648Z,22.4
2024-02-13T09:12:00.950Z,22.7
2024-02-13T09:13:00.752Z,22.9
2024-02-13T09:14:00.875Z,23.3
2024-02-13T09:15:00.715Z,23.7
2024-02-13T09:16:00.689Z,23.6
2024-02-13T09:17:00.676Z,23.5
2024-02-13T09:18:00.972Z,23.7
2024-02-13T09:19:01.022Z,23.7
2024-02-13T09:20:00.736Z,24.8
2024-02-13T09:21:00.738Z,25.6
2024-02-13T09:22:00.676Z,25.6
2024-02-13T09:23:00.681Z,25.6
2024-02-13T09:24:00.812Z,25.2
2024-02-13T09:25:00.648Z,25.5
2024-02-13T09:26:00.697Z,26.3
2024-02-13T09:27:00.791Z,25.9
2024-02-13T09:28:00.682Z,26.5
2024-02-13T09:29:00.678Z,26.8
2024-02-13T09:30:00.787Z,26.5
2024-02-13T09:31:00.925Z,26.3
2024-02-13T09:32:00.681Z,25.8
2024-02-13T09:33:00.866Z,25.8
2024-02-13T09:34:00.847Z,25.9
2024-02-13T09:35:00.815Z,25.8
2024-02-13T09:36:00.717Z,25.8
2024-02-13T09:37:00.671Z,25.6
2024-02-13T09:38:00.650Z,25.7
2024-02-13T09:39:00.774Z,25.7
2024-02-13T09:40:00.658Z,25.4
2024-02-13T09:41:00.660Z,24.9
2024-02-13T09:42:00.724Z,24.4
2024-02-13T09:43:00.690Z,24.0
2024-02-13T09:44:00.705Z,24.1
2024-02-13T09:45:00.920Z,24.7
2024-02-13T09:46:00.670Z,25.2
2024-02-13T09:47:00.662Z,25.5
2024-02-13T09:48:00.878Z,26.1
2024-02-13T09:49:00.883Z,26.2
2024-02-13T09:50:00.791Z,26.4
2024-02-13T09:51:00.868Z,27.1
2024-02-13T09:52:00.727Z,27.4
2024-02-13T09:53:00.655Z,27.3
2024-02-13T09:54:00.730Z,26.9
2024-02-13T09:55:00.771Z,26.6
2024-02-13T09:56:00.725Z,26.3
2024-02-13T09:57:00.840Z,25.4
2024-02-13T09:58:00.681Z,25.3
2024-02-13T09:59:00.656Z,25.3
2024-02-13T10:00:00.823Z,25.2
2024-02-13T10:01:01.742Z,24.4
2024-02-13T10:02:00.675Z,24.4
2024-02-13T10:03:00.765Z,24.9
2024-02-13T10:04:00.835Z,25.0
2024-02-13T10:05:00.678Z,25.2
2024-02-13T10:06:00.848Z,25.0
2024-02-13T10:07:00.927Z,25.1
2024-02-13T10:08:00.667Z,25.2
2024-02-13T10:09:00.775Z,25.3
2024-02-13T10:10:00.684Z,25.4
2024-02-13T10:11:00.678Z,25.6
2024-02-13T10:12:00.681Z,26.0
2024-02-13T10:13:00.737Z,26.3
2024-02-13T10:14:00.661Z,26.2
2024-02-13T10:15:00.744Z,26.1
2024-02-13T10:16:00.663Z,26.1
2024-02-13T10:17:00.657Z,25.9
2024-02-13T10:18:00.929Z,25.8
2024-02-13T10:19:00.717Z,25.8
2024-02-13T10:20:00.724Z,25.6
2024-02-13T10:21:00.678Z,25.0
2024-02-13T10:22:00.653Z,24.6
2024-02-13T10:23:00.707Z,24.6
2024-02-13T10:24:00.781Z,25.2
2024-02-13T10:25:00.741Z,25.4
2024-02-13T10:26:00.714Z,25.6
2024-02-13T10:27:00.779Z,25.9
2024-02-13T10:28:00.660Z,25.8
2024-02-13T10:29:00.687Z,26.2
2024-02-13T10:30:00.867Z,26.2
2024-02-13T10:31:00.801Z,25.8
2024-02-13T10:32:00.742Z,25.8
2024-02-13T10:33:00.832Z,25.6
2024-02-13T10:34:00.710Z,25.6
2024-02-13T10:35:00.696Z,25.6
2024-02-13T10:36:00.893Z,25.5
2024-02-13T10:37:00.953Z,25.3
2024-02-13T10:38:00.703Z,25.3
2024-02-13T10:39:00.738Z,25.2
2024-02-13T10:40:00.678Z,25.2
2024-02-13T10:41:00.649Z,25.2
2024-02-13T10:42:00.741Z,25.1
2024-02-13T10:43:00.733Z,24.9
2024-02-13T10:44:00.664Z,25.2
2024-02-13T10:45:00.837Z,25.4
2024-02-13T10:46:00.649Z,26.0
2024-02-13T10:47:00.736Z,26.1
2024-02-13T10:48:00.737Z,26.4
2024-02-13T10:49:00.812Z,26.0
2024-02-13T10:50:01.046Z,25.9
2024-02-13T10:51:00.740Z,25.7
2024-02-13T10:52:00.758Z,25.7
2024-02-13T10:53:00.654Z,25.9
2024-02-13T10:54:00.977Z,25.7
2024-02-13T10:55:00.652Z,25.6
2024-02-13T10:56:00.664Z,25.8
2024-02-13T10:57:00.722Z,25.8
2024-02-13T10:58:00.770Z,25.6
2024-02-13T10:59:00.827Z,25.4
2024-02-13T11:00:00.792Z,25.5
2024-02-13T11:01:00.871Z,25.9
2024-02-13T11:02:01.552Z,26.3
2024-02-13T11:03:00.927Z,26.4
2024-02-13T11:04:00.797Z,26.1
2024-02-13T11:05:00.772Z,26.2
2024-02-13T11:06:00.801Z,26.2
2024-02-13T11:07:00.760Z,26.1
2024-02-13T11:08:00.659Z,26.3
2024-02-13T11:09:00.804Z,26.5
2024-02-13T11:10:00.822Z,26.5
2024-02-13T11:11:00.664Z,26.8
2024-02-13T11:12:00.854Z,27.0
2024-02-13T11:13:00.893Z,27.1
2024-02-13T11:14:00.652Z,27.0
2024-02-13T11:15:00.834Z,26.8
2024-02-13T11:16:00.662Z,26.8
2024-02-13T11:17:00.767Z,27.0
2024-02-13T11:18:00.752Z,27.0
2024-02-13T11:19:00.792Z,27.0
2024-02-13T11:20:00.808Z,27.0
2024-02-13T11:21:00.712Z,27.0
2024-02-13T11:22:00.656Z,27.2
2024-02-13T11:23:01.066Z,27.2
2024-02-13T11:24:00.869Z,27.2
2024-02-13T11:25:00.746Z,27.4
2024-02-13T11:26:00.685Z,27.3
2024-02-13T11:27:02.404Z,27.6
2024-02-13T11:28:00.652Z,27.8
2024-02-13T11:29:00.652Z,28.0
2024-02-13T11:30:01.718Z,28.0
2024-02-13T11:31:00.727Z,28.1
2024-02-13T11:32:00.756Z,28.0
2024-02-13T11:33:00.723Z,27.9
2024-02-13T11:34:00.771Z,27.9
2024-02-13T11:35:01.080Z,27.9
2024-02-13T11:36:00.837Z,28.0
2024-02-13T11:37:00.882Z,27.8
2024-02-13T11:38:00.658Z,27.7
2024-02-13T11:39:00.705Z,27.6
2024-02-13T11:40:00.672Z,27.7
2024-02-13T11:41:00.700Z,27.9
2024-02-13T11:42:00.701Z,28.0
2024-02-13T11:43:00.717Z,27.9
2024-02-13T11:44:00.673Z,27.8
2024-02-13T11:45:00.723Z,27.6
2024-02-13T11:46:00.660Z,27.5
2024-02-13T11:47:00.862Z,27.5
2024-02-13T11:48:00.864Z,27.6
2024-02-13T11:49:00.883Z,27.6
2024-02-13T11:50:00.843Z,27.7
2024-02-13T11:51:00.725Z,27.7
2024-02-13T11:52:00.703Z,27.8
2024-02-13T11:53:00.742Z,27.7
2024-02-13T11:54:00.680Z,27.6
2024-02-13T11:55:00.684Z,27.8
2024-02-13T11:56:00.745Z,27.5
2024-02-13T11:57:00.908Z,27.4
2024-02-13T11:58:00.717Z,27.8
2024-02-13T11:59:00.784Z,27.8
2024-02-13T12:00:00.818Z,27.9
2024-02-13T12:01:00.780Z,28.4
2024-02-13T12:02:00.804Z,28.5
2024-02-13T12:03:00.696Z,28.6
2024-02-13T12:04:00.677Z,28.9
2024-02-13T12:05:00.752Z,28.9
2024-02-13T12:06:00.731Z,28.8
2024-02-13T12:07:00.701Z,28.7
2024-02-13T12:08:00.669Z,28.7
2024-02-13T12:09:00.747Z,28.7
2024-02-13T12:10:00.673Z,28.7
2024-02-13T12:11:00.723Z,28.7
2024-02-13T12:12:00.743Z,29.0
2024-02-13T12:13:00.649Z,29.5
2024-02-13T12:14:00.670Z,29.4
2024-02-13T12:15:00.719Z,29.3
2024-02-13T12:16:00.689Z,29.3
2024-02-13T12:17:00.808Z,29.4
2024-02-13T12:18:00.995Z,29.7
2024-02-13T12:19:00.830Z,29.7
2024-02-13T12:20:00.670Z,29.6
2024-02-13T12:21:00.820Z,29.4
2024-02-13T12:22:00.676Z,29.5
2024-02-13T12:23:00.742Z,29.6
2024-02-13T12:24:00.858Z,29.5
2024-02-13T12:25:00.648Z,29.4
2024-02-13T12:26:00.678Z,29.3
2024-02-13T12:27:00.738Z,29.3
2024-02-13T12:28:00.651Z,29.5
2024-02-13T12:29:00.722Z,29.5
2024-02-13T12:30:00.782Z,29.4
2024-02-13T12:31:00.818Z,29.4
2024-02-13T12:32:00.794Z,29.7
2024-02-13T12:33:00.762Z,29.6
2024-02-13T12:34:00.874Z,29.5
2024-02-13T12:35:00.768Z,29.4
2024-02-13T12:36:00.707Z,29.7
2024-02-13T12:37:00.772Z,29.5
2024-02-13T12:38:00.734Z,29.5
2024-02-13T12:39:00.895Z,29.5
2024-02-13T12:40:00.675Z,29.6
2024-02-13T12:41:00.665Z,29.6
2024-02-13T12:42:01.731Z,29.7
2024-02-13T12:43:00.932Z,29.9
2024-02-13T12:44:00.658Z,30.1
2024-02-13T12:45:00.856Z,30.4
2024-02-13T12:46:00.657Z,30.6
2024-02-13T12:47:00.896Z,30.4
2024-02-13T12:48:00.830Z,30.3
2024-02-13T12:49:00.968Z,30.4
2024-02-13T12:50:00.849Z,30.4
2024-02-13T12:51:00.718Z,30.6
2024-02-13T12:52:00.684Z,30.6
2024-02-13T12:53:00.648Z,30.6
2024-02-13T12:54:00.761Z,30.6
2024-02-13T12:55:00.719Z,30.5
2024-02-13T12:56:00.666Z,30.6
2024-02-13T12:57:00.819Z,30.7
2024-02-13T12:58:00.741Z,30.6
2024-02-13T12:59:00.672Z,30.9
2024-02-13T13:00:01.049Z,30.9
2024-02-13T13:01:00.690Z,31.1
2024-02-13T13:02:00.899Z,31.1
2024-02-13T13:03:00.697Z,31.1
2024-02-13T13:04:00.771Z,30.9
2024-02-13T13:05:00.654Z,31.1
2024-02-13T13:06:00.815Z,31.1
2024-02-13T13:07:00.687Z,31.0
2024-02-13T13:08:00.671Z,31.0
2024-02-13T13:09:03.000Z,30.9
2024-02-13T13:10:00.743Z,30.8
2024-02-13T13:11:00.668Z,30.9
2024-02-13T13:12:01.089Z,30.9
2024-02-13T13:13:00.645Z,30.8
2024-02-13T13:14:00.674Z,30.7
2024-02-13T13:15:06.935Z,30.8
2024-02-13T13:16:00.759Z,30.8
2024-02-13T13:17:00.889Z,30.9
2024-02-13T13:18:00.695Z,31.0